sensor_id;sensor_type;location;lat;lon;timestamp;P1;durP1;ratioP1;P2;durP2;ratioP2
77234;SDS011;66253;50.526;14.974;2023-06-22T00:01:31;12.60;;;7.20;;
77234;SDS011;66253;50.526;14.974;2023-06-22T00:04:00;13.70;;;7.30;;
77234;SDS011;66253;50.526;14.974;2023-06-22T00:06:29;12.20;;;7.00;;
77234;SDS011;66253;50.526;14.974;2023-06-22T00:08:57;12.70;;;8.00;;
77234;SDS011;66253;50.526;14.974;2023-06-22T00:11:26;13.90;;;7.10;;
77234;SDS011;66253;50.526;14.974;2023-06-22T00:13:54;10.70;;;7.60;;
77234;SDS011;66253;50.526;14.974;2023-06-22T00:16:22;10.90;;;8.00;;
77234;SDS011;66253;50.526;14.974;2023-06-22T00:18:51;10.70;;;7.10;;
77234;SDS011;66253;50.526;14.974;2023-06-22T00:21:19;11.60;;;7.00;;
77234;SDS011;66253;50.526;14.974;2023-06-22T00:23:47;12.10;;;6.40;;
77234;SDS011;66253;50.526;14.974;2023-06-22T00:26:16;17.10;;;6.90;;
77234;SDS011;66253;50.526;14.974;2023-06-22T00:28:44;11.40;;;6.30;;
77234;SDS011;66253;50.526;14.974;2023-06-22T00:31:12;12.30;;;7.80;;
77234;SDS011;66253;50.526;14.974;2023-06-22T00:33:41;10.80;;;6.90;;
77234;SDS011;66253;50.526;14.974;2023-06-22T00:36:10;10.70;;;6.20;;
77234;SDS011;66253;50.526;14.974;2023-06-22T00:38:38;11.70;;;6.60;;
77234;SDS011;66253;50.526;14.974;2023-06-22T00:41:06;16.90;;;7.00;;
77234;SDS011;66253;50.526;14.974;2023-06-22T00:43:34;10.90;;;7.50;;
77234;SDS011;66253;50.526;14.974;2023-06-22T00:46:03;12.60;;;6.70;;
77234;SDS011;66253;50.526;14.974;2023-06-22T00:48:32;11.90;;;6.70;;
77234;SDS011;66253;50.526;14.974;2023-06-22T00:51:00;12.60;;;7.10;;
77234;SDS011;66253;50.526;14.974;2023-06-22T00:53:29;13.30;;;6.70;;
77234;SDS011;66253;50.526;14.974;2023-06-22T00:55:57;11.10;;;5.90;;
77234;SDS011;66253;50.526;14.974;2023-06-22T00:58:26;11.20;;;6.00;;
77234;SDS011;66253;50.526;14.974;2023-06-22T01:00:54;11.50;;;6.10;;
77234;SDS011;66253;50.526;14.974;2023-06-22T01:03:23;15.30;;;6.60;;
77234;SDS011;66253;50.526;14.974;2023-06-22T01:05:51;11.00;;;6.60;;
77234;SDS011;66253;50.526;14.974;2023-06-22T01:08:29;15.30;;;8.10;;
77234;SDS011;66253;50.526;14.974;2023-06-22T01:11:04;10.00;;;5.80;;
77234;SDS011;66253;50.526;14.974;2023-06-22T01:13:37;15.20;;;7.60;;
77234;SDS011;66253;50.526;14.974;2023-06-22T01:16:13;12.10;;;6.10;;
77234;SDS011;66253;50.526;14.974;2023-06-22T01:18:47;13.80;;;6.30;;
77234;SDS011;66253;50.526;14.974;2023-06-22T01:21:18;11.10;;;6.90;;
77234;SDS011;66253;50.526;14.974;2023-06-22T01:23:54;11.90;;;6.60;;
77234;SDS011;66253;50.526;14.974;2023-06-22T01:26:33;9.00;;;6.60;;
77234;SDS011;66253;50.526;14.974;2023-06-22T01:29:05;10.40;;;6.70;;
77234;SDS011;66253;50.526;14.974;2023-06-22T01:31:35;11.20;;;7.60;;
77234;SDS011;66253;50.526;14.974;2023-06-22T01:34:05;11.60;;;6.90;;
77234;SDS011;66253;50.526;14.974;2023-06-22T01:36:35;10.70;;;6.70;;
77234;SDS011;66253;50.526;14.974;2023-06-22T01:39:04;9.40;;;6.40;;
77234;SDS011;66253;50.526;14.974;2023-06-22T01:41:34;9.50;;;6.20;;
77234;SDS011;66253;50.526;14.974;2023-06-22T01:44:04;13.40;;;6.80;;
77234;SDS011;66253;50.526;14.974;2023-06-22T01:46:33;10.20;;;6.10;;
77234;SDS011;66253;50.526;14.974;2023-06-22T01:49:04;11.20;;;6.60;;
77234;SDS011;66253;50.526;14.974;2023-06-22T01:51:33;9.90;;;6.40;;
77234;SDS011;66253;50.526;14.974;2023-06-22T01:54:02;13.70;;;6.40;;
77234;SDS011;66253;50.526;14.974;2023-06-22T01:56:32;13.10;;;7.00;;
77234;SDS011;66253;50.526;14.974;2023-06-22T01:59:03;12.50;;;7.60;;
77234;SDS011;66253;50.526;14.974;2023-06-22T02:01:39;12.60;;;8.00;;
77234;SDS011;66253;50.526;14.974;2023-06-22T02:04:12;18.10;;;8.00;;
77234;SDS011;66253;50.526;14.974;2023-06-22T02:06:45;13.90;;;8.00;;
77234;SDS011;66253;50.526;14.974;2023-06-22T02:09:17;14.10;;;8.10;;
77234;SDS011;66253;50.526;14.974;2023-06-22T02:11:48;19.40;;;8.20;;
77234;SDS011;66253;50.526;14.974;2023-06-22T02:14:22;16.60;;;8.90;;
77234;SDS011;66253;50.526;14.974;2023-06-22T02:16:51;23.90;;;8.80;;
77234;SDS011;66253;50.526;14.974;2023-06-22T02:19:23;18.10;;;8.80;;
77234;SDS011;66253;50.526;14.974;2023-06-22T02:21:53;14.90;;;7.80;;
77234;SDS011;66253;50.526;14.974;2023-06-22T02:24:21;21.00;;;8.20;;
77234;SDS011;66253;50.526;14.974;2023-06-22T02:26:50;13.60;;;8.40;;
77234;SDS011;66253;50.526;14.974;2023-06-22T02:29:19;12.50;;;8.10;;
77234;SDS011;66253;50.526;14.974;2023-06-22T02:31:47;13.60;;;9.10;;
77234;SDS011;66253;50.526;14.974;2023-06-22T02:34:16;13.30;;;8.40;;
77234;SDS011;66253;50.526;14.974;2023-06-22T02:36:45;15.10;;;7.90;;
77234;SDS011;66253;50.526;14.974;2023-06-22T02:41:41;11.20;;;7.30;;
77234;SDS011;66253;50.526;14.974;2023-06-22T02:44:09;11.70;;;7.30;;
77234;SDS011;66253;50.526;14.974;2023-06-22T02:46:38;12.00;;;7.70;;
77234;SDS011;66253;50.526;14.974;2023-06-22T02:49:06;14.20;;;8.40;;
77234;SDS011;66253;50.526;14.974;2023-06-22T02:51:35;12.60;;;7.50;;
77234;SDS011;66253;50.526;14.974;2023-06-22T02:54:05;13.90;;;7.70;;
77234;SDS011;66253;50.526;14.974;2023-06-22T02:56:33;12.90;;;7.40;;
77234;SDS011;66253;50.526;14.974;2023-06-22T02:59:02;16.00;;;7.20;;
77234;SDS011;66253;50.526;14.974;2023-06-22T03:01:30;13.70;;;7.40;;
77234;SDS011;66253;50.526;14.974;2023-06-22T03:03:58;11.50;;;7.10;;
77234;SDS011;66253;50.526;14.974;2023-06-22T03:06:27;13.80;;;7.50;;
77234;SDS011;66253;50.526;14.974;2023-06-22T03:08:57;13.90;;;7.90;;
77234;SDS011;66253;50.526;14.974;2023-06-22T03:11:26;14.70;;;8.60;;
77234;SDS011;66253;50.526;14.974;2023-06-22T03:13:54;10.80;;;7.40;;
77234;SDS011;66253;50.526;14.974;2023-06-22T03:16:23;11.70;;;7.80;;
77234;SDS011;66253;50.526;14.974;2023-06-22T03:18:52;11.00;;;7.70;;
77234;SDS011;66253;50.526;14.974;2023-06-22T03:21:21;13.40;;;7.40;;
77234;SDS011;66253;50.526;14.974;2023-06-22T03:23:49;13.80;;;7.40;;
77234;SDS011;66253;50.526;14.974;2023-06-22T03:26:18;18.40;;;7.40;;
77234;SDS011;66253;50.526;14.974;2023-06-22T03:28:47;13.70;;;8.10;;
77234;SDS011;66253;50.526;14.974;2023-06-22T03:31:15;10.90;;;7.20;;
77234;SDS011;66253;50.526;14.974;2023-06-22T03:33:44;10.20;;;6.50;;
77234;SDS011;66253;50.526;14.974;2023-06-22T03:36:12;13.70;;;7.60;;
77234;SDS011;66253;50.526;14.974;2023-06-22T03:38:40;12.10;;;7.70;;
77234;SDS011;66253;50.526;14.974;2023-06-22T03:41:09;14.40;;;7.80;;
77234;SDS011;66253;50.526;14.974;2023-06-22T03:43:38;12.60;;;7.90;;
77234;SDS011;66253;50.526;14.974;2023-06-22T03:46:06;13.40;;;6.80;;
77234;SDS011;66253;50.526;14.974;2023-06-22T03:48:35;11.50;;;7.50;;
77234;SDS011;66253;50.526;14.974;2023-06-22T03:51:04;14.00;;;8.50;;
77234;SDS011;66253;50.526;14.974;2023-06-22T03:53:32;13.90;;;7.20;;
77234;SDS011;66253;50.526;14.974;2023-06-22T03:56:01;11.80;;;6.70;;
77234;SDS011;66253;50.526;14.974;2023-06-22T03:58:30;10.70;;;7.10;;
77234;SDS011;66253;50.526;14.974;2023-06-22T04:00:58;12.20;;;7.50;;
77234;SDS011;66253;50.526;14.974;2023-06-22T04:03:27;11.40;;;7.00;;
77234;SDS011;66253;50.526;14.974;2023-06-22T04:05:55;13.10;;;7.60;;
77234;SDS011;66253;50.526;14.974;2023-06-22T04:08:24;10.50;;;6.70;;
77234;SDS011;66253;50.526;14.974;2023-06-22T04:10:52;12.40;;;7.70;;
77234;SDS011;66253;50.526;14.974;2023-06-22T04:13:21;10.30;;;7.40;;
77234;SDS011;66253;50.526;14.974;2023-06-22T04:15:49;15.10;;;7.70;;
77234;SDS011;66253;50.526;14.974;2023-06-22T04:18:17;11.20;;;7.20;;
77234;SDS011;66253;50.526;14.974;2023-06-22T04:20:46;11.90;;;7.00;;
77234;SDS011;66253;50.526;14.974;2023-06-22T04:23:15;11.00;;;6.60;;
77234;SDS011;66253;50.526;14.974;2023-06-22T04:25:43;11.10;;;6.90;;
77234;SDS011;66253;50.526;14.974;2023-06-22T04:28:12;15.10;;;9.40;;
77234;SDS011;66253;50.526;14.974;2023-06-22T04:30:40;10.50;;;7.30;;
77234;SDS011;66253;50.526;14.974;2023-06-22T04:33:08;14.50;;;7.20;;
77234;SDS011;66253;50.526;14.974;2023-06-22T04:35:37;11.60;;;7.30;;
77234;SDS011;66253;50.526;14.974;2023-06-22T04:38:05;11.70;;;6.70;;
77234;SDS011;66253;50.526;14.974;2023-06-22T04:40:34;14.90;;;8.20;;
77234;SDS011;66253;50.526;14.974;2023-06-22T04:43:02;13.10;;;6.90;;
77234;SDS011;66253;50.526;14.974;2023-06-22T04:45:30;13.10;;;7.70;;
77234;SDS011;66253;50.526;14.974;2023-06-22T04:47:59;12.70;;;8.40;;
77234;SDS011;66253;50.526;14.974;2023-06-22T04:50:27;12.80;;;7.30;;
77234;SDS011;66253;50.526;14.974;2023-06-22T04:52:56;11.90;;;8.40;;
77234;SDS011;66253;50.526;14.974;2023-06-22T04:55:24;14.70;;;7.80;;
77234;SDS011;66253;50.526;14.974;2023-06-22T04:57:53;11.30;;;8.10;;
77234;SDS011;66253;50.526;14.974;2023-06-22T05:00:21;11.70;;;7.20;;
77234;SDS011;66253;50.526;14.974;2023-06-22T05:02:50;14.30;;;7.60;;
77234;SDS011;66253;50.526;14.974;2023-06-22T05:05:18;13.90;;;9.10;;
77234;SDS011;66253;50.526;14.974;2023-06-22T05:07:47;13.40;;;7.90;;
77234;SDS011;66253;50.526;14.974;2023-06-22T05:10:16;10.40;;;7.50;;
77234;SDS011;66253;50.526;14.974;2023-06-22T05:12:45;12.80;;;8.40;;
77234;SDS011;66253;50.526;14.974;2023-06-22T05:15:14;12.70;;;8.80;;
77234;SDS011;66253;50.526;14.974;2023-06-22T05:17:42;11.40;;;8.20;;
77234;SDS011;66253;50.526;14.974;2023-06-22T05:20:11;10.30;;;6.90;;
77234;SDS011;66253;50.526;14.974;2023-06-22T05:22:40;10.90;;;7.50;;
77234;SDS011;66253;50.526;14.974;2023-06-22T05:25:09;10.90;;;7.60;;
77234;SDS011;66253;50.526;14.974;2023-06-22T05:27:38;9.60;;;6.50;;
77234;SDS011;66253;50.526;14.974;2023-06-22T05:30:08;11.90;;;7.80;;
77234;SDS011;66253;50.526;14.974;2023-06-22T05:32:37;12.00;;;7.60;;
77234;SDS011;66253;50.526;14.974;2023-06-22T05:35:05;10.10;;;7.50;;
77234;SDS011;66253;50.526;14.974;2023-06-22T05:37:34;13.00;;;8.10;;
77234;SDS011;66253;50.526;14.974;2023-06-22T05:40:04;12.30;;;7.50;;
77234;SDS011;66253;50.526;14.974;2023-06-22T05:42:34;11.80;;;7.50;;
77234;SDS011;66253;50.526;14.974;2023-06-22T05:45:02;10.70;;;7.30;;
77234;SDS011;66253;50.526;14.974;2023-06-22T05:47:32;10.50;;;7.00;;
77234;SDS011;66253;50.526;14.974;2023-06-22T05:50:01;12.40;;;7.40;;
77234;SDS011;66253;50.526;14.974;2023-06-22T05:52:32;11.50;;;8.40;;
77234;SDS011;66253;50.526;14.974;2023-06-22T05:55:01;10.30;;;6.80;;
77234;SDS011;66253;50.526;14.974;2023-06-22T05:57:31;9.50;;;7.00;;
77234;SDS011;66253;50.526;14.974;2023-06-22T05:59:59;10.10;;;6.40;;
77234;SDS011;66253;50.526;14.974;2023-06-22T06:02:29;10.40;;;6.10;;
77234;SDS011;66253;50.526;14.974;2023-06-22T06:04:57;11.00;;;5.90;;
77234;SDS011;66253;50.526;14.974;2023-06-22T06:07:26;8.90;;;6.00;;
77234;SDS011;66253;50.526;14.974;2023-06-22T06:09:54;9.60;;;5.50;;
77234;SDS011;66253;50.526;14.974;2023-06-22T06:12:23;9.20;;;5.90;;
77234;SDS011;66253;50.526;14.974;2023-06-22T06:14:52;10.90;;;5.70;;
77234;SDS011;66253;50.526;14.974;2023-06-22T06:17:20;9.60;;;6.10;;
77234;SDS011;66253;50.526;14.974;2023-06-22T06:19:48;10.40;;;5.70;;
77234;SDS011;66253;50.526;14.974;2023-06-22T06:22:17;10.30;;;5.70;;
77234;SDS011;66253;50.526;14.974;2023-06-22T06:24:51;8.10;;;5.60;;
77234;SDS011;66253;50.526;14.974;2023-06-22T06:27:20;8.20;;;5.70;;
77234;SDS011;66253;50.526;14.974;2023-06-22T06:29:48;8.70;;;5.80;;
77234;SDS011;66253;50.526;14.974;2023-06-22T06:32:17;8.60;;;5.60;;
77234;SDS011;66253;50.526;14.974;2023-06-22T06:34:45;11.50;;;6.60;;
77234;SDS011;66253;50.526;14.974;2023-06-22T06:37:14;8.60;;;5.90;;
77234;SDS011;66253;50.526;14.974;2023-06-22T06:39:42;9.60;;;7.20;;
77234;SDS011;66253;50.526;14.974;2023-06-22T06:42:11;8.90;;;6.30;;
77234;SDS011;66253;50.526;14.974;2023-06-22T06:44:40;8.80;;;5.70;;
77234;SDS011;66253;50.526;14.974;2023-06-22T06:47:08;13.00;;;6.70;;
77234;SDS011;66253;50.526;14.974;2023-06-22T06:49:37;8.90;;;6.60;;
77234;SDS011;66253;50.526;14.974;2023-06-22T06:52:06;9.70;;;6.90;;
77234;SDS011;66253;50.526;14.974;2023-06-22T06:54:46;10.70;;;7.90;;
77234;SDS011;66253;50.526;14.974;2023-06-22T06:57:14;8.40;;;5.90;;
77234;SDS011;66253;50.526;14.974;2023-06-22T06:59:42;9.00;;;6.40;;
77234;SDS011;66253;50.526;14.974;2023-06-22T07:02:11;8.50;;;6.20;;
77234;SDS011;66253;50.526;14.974;2023-06-22T07:04:39;9.60;;;6.80;;
77234;SDS011;66253;50.526;14.974;2023-06-22T07:07:08;9.30;;;6.70;;
77234;SDS011;66253;50.526;14.974;2023-06-22T07:09:36;11.90;;;6.50;;
77234;SDS011;66253;50.526;14.974;2023-06-22T07:12:06;11.70;;;7.10;;
77234;SDS011;66253;50.526;14.974;2023-06-22T07:14:35;8.10;;;5.90;;
77234;SDS011;66253;50.526;14.974;2023-06-22T07:17:04;10.30;;;7.10;;
77234;SDS011;66253;50.526;14.974;2023-06-22T07:19:32;8.50;;;6.20;;
77234;SDS011;66253;50.526;14.974;2023-06-22T07:22:01;9.90;;;7.20;;
77234;SDS011;66253;50.526;14.974;2023-06-22T07:24:29;9.00;;;7.20;;
77234;SDS011;66253;50.526;14.974;2023-06-22T07:26:58;10.60;;;7.60;;
77234;SDS011;66253;50.526;14.974;2023-06-22T07:29:26;9.50;;;6.90;;
77234;SDS011;66253;50.526;14.974;2023-06-22T07:31:55;11.10;;;7.10;;
77234;SDS011;66253;50.526;14.974;2023-06-22T07:34:23;8.80;;;6.50;;
77234;SDS011;66253;50.526;14.974;2023-06-22T07:36:52;10.10;;;6.80;;
77234;SDS011;66253;50.526;14.974;2023-06-22T07:39:28;10.40;;;6.60;;
77234;SDS011;66253;50.526;14.974;2023-06-22T07:41:57;8.50;;;6.00;;
77234;SDS011;66253;50.526;14.974;2023-06-22T07:44:25;8.80;;;6.20;;
77234;SDS011;66253;50.526;14.974;2023-06-22T07:46:54;8.90;;;6.60;;
77234;SDS011;66253;50.526;14.974;2023-06-22T07:49:22;10.10;;;7.00;;
77234;SDS011;66253;50.526;14.974;2023-06-22T07:51:51;10.80;;;6.60;;
77234;SDS011;66253;50.526;14.974;2023-06-22T07:54:19;10.40;;;7.00;;
77234;SDS011;66253;50.526;14.974;2023-06-22T07:56:50;10.30;;;6.30;;
77234;SDS011;66253;50.526;14.974;2023-06-22T07:59:22;9.10;;;7.70;;
77234;SDS011;66253;50.526;14.974;2023-06-22T08:01:51;10.10;;;6.80;;
77234;SDS011;66253;50.526;14.974;2023-06-22T08:04:20;9.40;;;7.90;;
77234;SDS011;66253;50.526;14.974;2023-06-22T08:06:48;11.50;;;6.30;;
77234;SDS011;66253;50.526;14.974;2023-06-22T08:09:16;8.30;;;7.30;;
77234;SDS011;66253;50.526;14.974;2023-06-22T08:11:45;9.60;;;7.30;;
77234;SDS011;66253;50.526;14.974;2023-06-22T08:14:14;8.90;;;7.10;;
77234;SDS011;66253;50.526;14.974;2023-06-22T08:16:42;9.00;;;6.90;;
77234;SDS011;66253;50.526;14.974;2023-06-22T08:19:11;11.20;;;7.00;;
77234;SDS011;66253;50.526;14.974;2023-06-22T08:21:39;8.10;;;7.30;;
77234;SDS011;66253;50.526;14.974;2023-06-22T08:24:08;10.20;;;6.50;;
77234;SDS011;66253;50.526;14.974;2023-06-22T08:26:36;9.00;;;6.10;;
77234;SDS011;66253;50.526;14.974;2023-06-22T08:29:05;7.60;;;5.90;;
77234;SDS011;66253;50.526;14.974;2023-06-22T08:31:33;8.40;;;6.80;;
77234;SDS011;66253;50.526;14.974;2023-06-22T08:34:03;8.70;;;7.30;;
77234;SDS011;66253;50.526;14.974;2023-06-22T08:36:31;9.00;;;7.00;;
77234;SDS011;66253;50.526;14.974;2023-06-22T08:39:00;8.60;;;6.80;;
77234;SDS011;66253;50.526;14.974;2023-06-22T08:41:29;9.30;;;7.10;;
77234;SDS011;66253;50.526;14.974;2023-06-22T08:43:57;9.90;;;7.70;;
77234;SDS011;66253;50.526;14.974;2023-06-22T08:46:26;9.20;;;7.70;;
77234;SDS011;66253;50.526;14.974;2023-06-22T08:48:54;9.10;;;6.00;;
77234;SDS011;66253;50.526;14.974;2023-06-22T08:51:23;9.40;;;6.00;;
77234;SDS011;66253;50.526;14.974;2023-06-22T08:53:59;7.70;;;6.10;;
77234;SDS011;66253;50.526;14.974;2023-06-22T08:56:27;9.00;;;7.60;;
77234;SDS011;66253;50.526;14.974;2023-06-22T08:58:56;7.00;;;6.00;;
77234;SDS011;66253;50.526;14.974;2023-06-22T09:01:25;11.20;;;7.40;;
77234;SDS011;66253;50.526;14.974;2023-06-22T09:03:54;7.80;;;6.00;;
77234;SDS011;66253;50.526;14.974;2023-06-22T09:06:22;10.00;;;6.90;;
77234;SDS011;66253;50.526;14.974;2023-06-22T09:08:51;8.10;;;6.40;;
77234;SDS011;66253;50.526;14.974;2023-06-22T09:11:20;8.20;;;7.30;;
77234;SDS011;66253;50.526;14.974;2023-06-22T09:13:49;8.90;;;7.90;;
77234;SDS011;66253;50.526;14.974;2023-06-22T09:16:19;8.20;;;7.30;;
77234;SDS011;66253;50.526;14.974;2023-06-22T09:18:48;9.70;;;8.00;;
77234;SDS011;66253;50.526;14.974;2023-06-22T09:21:17;9.80;;;7.60;;
77234;SDS011;66253;50.526;14.974;2023-06-22T09:23:46;9.70;;;7.90;;
77234;SDS011;66253;50.526;14.974;2023-06-22T09:26:15;9.40;;;7.80;;
77234;SDS011;66253;50.526;14.974;2023-06-22T09:31:11;8.50;;;6.20;;
77234;SDS011;66253;50.526;14.974;2023-06-22T09:36:07;8.70;;;6.20;;
77234;SDS011;66253;50.526;14.974;2023-06-22T09:38:35;8.90;;;7.20;;
77234;SDS011;66253;50.526;14.974;2023-06-22T09:41:04;7.80;;;7.00;;
77234;SDS011;66253;50.526;14.974;2023-06-22T09:43:34;10.20;;;7.10;;
77234;SDS011;66253;50.526;14.974;2023-06-22T09:48:29;7.30;;;5.70;;
77234;SDS011;66253;50.526;14.974;2023-06-22T09:50:58;8.60;;;7.10;;
77234;SDS011;66253;50.526;14.974;2023-06-22T09:53:27;8.60;;;7.50;;
77234;SDS011;66253;50.526;14.974;2023-06-22T09:55:55;9.60;;;6.50;;
77234;SDS011;66253;50.526;14.974;2023-06-22T09:58:23;9.10;;;6.60;;
77234;SDS011;66253;50.526;14.974;2023-06-22T10:00:52;7.20;;;6.30;;
77234;SDS011;66253;50.526;14.974;2023-06-22T10:03:21;8.40;;;7.50;;
77234;SDS011;66253;50.526;14.974;2023-06-22T10:05:49;8.50;;;6.90;;
77234;SDS011;66253;50.526;14.974;2023-06-22T10:08:17;8.10;;;6.80;;
77234;SDS011;66253;50.526;14.974;2023-06-22T10:10:46;8.00;;;7.20;;
77234;SDS011;66253;50.526;14.974;2023-06-22T10:13:15;9.00;;;7.00;;
77234;SDS011;66253;50.526;14.974;2023-06-22T10:15:43;7.80;;;7.00;;
77234;SDS011;66253;50.526;14.974;2023-06-22T10:18:12;8.20;;;6.60;;
77234;SDS011;66253;50.526;14.974;2023-06-22T10:20:40;8.70;;;6.70;;
77234;SDS011;66253;50.526;14.974;2023-06-22T10:23:09;8.80;;;5.70;;
77234;SDS011;66253;50.526;14.974;2023-06-22T10:25:38;8.40;;;6.70;;
77234;SDS011;66253;50.526;14.974;2023-06-22T10:28:12;9.40;;;7.60;;
77234;SDS011;66253;50.526;14.974;2023-06-22T10:30:40;8.10;;;7.10;;
77234;SDS011;66253;50.526;14.974;2023-06-22T10:33:10;7.60;;;6.40;;
77234;SDS011;66253;50.526;14.974;2023-06-22T10:35:38;7.70;;;6.60;;
77234;SDS011;66253;50.526;14.974;2023-06-22T10:40:34;8.10;;;7.00;;
77234;SDS011;66253;50.526;14.974;2023-06-22T10:43:02;8.00;;;6.70;;
77234;SDS011;66253;50.526;14.974;2023-06-22T10:45:31;7.60;;;6.80;;
77234;SDS011;66253;50.526;14.974;2023-06-22T10:48:05;7.60;;;5.10;;
77234;SDS011;66253;50.526;14.974;2023-06-22T10:50:34;9.00;;;6.90;;
77234;SDS011;66253;50.526;14.974;2023-06-22T10:53:02;8.00;;;6.80;;
77234;SDS011;66253;50.526;14.974;2023-06-22T10:55:31;7.40;;;5.10;;
77234;SDS011;66253;50.526;14.974;2023-06-22T10:58:00;8.80;;;6.50;;
77234;SDS011;66253;50.526;14.974;2023-06-22T11:00:28;8.40;;;5.50;;
77234;SDS011;66253;50.526;14.974;2023-06-22T11:02:57;7.20;;;6.50;;
77234;SDS011;66253;50.526;14.974;2023-06-22T11:05:25;7.30;;;6.60;;
77234;SDS011;66253;50.526;14.974;2023-06-22T11:07:54;8.40;;;6.80;;
77234;SDS011;66253;50.526;14.974;2023-06-22T11:10:22;7.70;;;6.30;;
77234;SDS011;66253;50.526;14.974;2023-06-22T11:12:51;6.70;;;5.60;;
77234;SDS011;66253;50.526;14.974;2023-06-22T11:15:19;6.80;;;5.20;;
77234;SDS011;66253;50.526;14.974;2023-06-22T11:17:48;7.10;;;6.00;;
77234;SDS011;66253;50.526;14.974;2023-06-22T11:20:16;8.40;;;6.30;;
77234;SDS011;66253;50.526;14.974;2023-06-22T11:22:45;6.40;;;5.10;;
77234;SDS011;66253;50.526;14.974;2023-06-22T11:25:13;7.70;;;6.00;;
77234;SDS011;66253;50.526;14.974;2023-06-22T11:27:41;7.30;;;6.10;;
77234;SDS011;66253;50.526;14.974;2023-06-22T11:30:10;7.40;;;5.60;;
77234;SDS011;66253;50.526;14.974;2023-06-22T11:32:39;7.30;;;5.60;;
77234;SDS011;66253;50.526;14.974;2023-06-22T11:35:08;6.40;;;5.20;;
77234;SDS011;66253;50.526;14.974;2023-06-22T11:40:04;6.30;;;5.10;;
77234;SDS011;66253;50.526;14.974;2023-06-22T11:42:34;6.50;;;5.60;;
77234;SDS011;66253;50.526;14.974;2023-06-22T11:45:04;6.50;;;5.70;;
77234;SDS011;66253;50.526;14.974;2023-06-22T11:47:34;7.20;;;5.80;;
77234;SDS011;66253;50.526;14.974;2023-06-22T11:50:02;6.70;;;5.60;;
77234;SDS011;66253;50.526;14.974;2023-06-22T11:52:33;6.90;;;5.60;;
77234;SDS011;66253;50.526;14.974;2023-06-22T11:55:01;7.60;;;6.20;;
77234;SDS011;66253;50.526;14.974;2023-06-22T11:57:30;7.30;;;6.00;;
77234;SDS011;66253;50.526;14.974;2023-06-22T11:59:59;7.20;;;6.20;;
77234;SDS011;66253;50.526;14.974;2023-06-22T12:02:27;10.80;;;5.70;;
77234;SDS011;66253;50.526;14.974;2023-06-22T12:04:55;6.90;;;5.40;;
77234;SDS011;66253;50.526;14.974;2023-06-22T12:07:24;7.20;;;6.00;;
77234;SDS011;66253;50.526;14.974;2023-06-22T12:09:53;7.60;;;5.70;;
77234;SDS011;66253;50.526;14.974;2023-06-22T12:12:22;7.40;;;6.60;;
77234;SDS011;66253;50.526;14.974;2023-06-22T12:14:50;11.10;;;6.10;;
77234;SDS011;66253;50.526;14.974;2023-06-22T12:17:19;6.80;;;5.80;;
77234;SDS011;66253;50.526;14.974;2023-06-22T12:19:47;6.90;;;6.20;;
77234;SDS011;66253;50.526;14.974;2023-06-22T12:22:15;8.90;;;7.10;;
77234;SDS011;66253;50.526;14.974;2023-06-22T12:24:44;9.40;;;6.80;;
77234;SDS011;66253;50.526;14.974;2023-06-22T12:27:12;8.70;;;7.70;;
77234;SDS011;66253;50.526;14.974;2023-06-22T12:29:41;8.80;;;7.10;;
77234;SDS011;66253;50.526;14.974;2023-06-22T12:32:10;8.30;;;6.60;;
77234;SDS011;66253;50.526;14.974;2023-06-22T12:34:38;9.30;;;7.40;;
77234;SDS011;66253;50.526;14.974;2023-06-22T12:37:08;8.10;;;7.30;;
77234;SDS011;66253;50.526;14.974;2023-06-22T12:39:37;9.50;;;7.30;;
77234;SDS011;66253;50.526;14.974;2023-06-22T12:42:07;9.90;;;6.60;;
77234;SDS011;66253;50.526;14.974;2023-06-22T12:44:35;8.10;;;6.90;;
77234;SDS011;66253;50.526;14.974;2023-06-22T12:49:31;7.30;;;6.50;;
77234;SDS011;66253;50.526;14.974;2023-06-22T12:52:00;9.10;;;7.10;;
77234;SDS011;66253;50.526;14.974;2023-06-22T12:54:29;10.60;;;7.30;;
77234;SDS011;66253;50.526;14.974;2023-06-22T12:56:58;8.00;;;7.20;;
77234;SDS011;66253;50.526;14.974;2023-06-22T12:59:26;8.80;;;5.30;;
77234;SDS011;66253;50.526;14.974;2023-06-22T13:01:54;9.60;;;7.00;;
77234;SDS011;66253;50.526;14.974;2023-06-22T13:04:23;8.30;;;7.50;;
77234;SDS011;66253;50.526;14.974;2023-06-22T13:06:51;9.10;;;7.20;;
77234;SDS011;66253;50.526;14.974;2023-06-22T13:09:20;9.40;;;7.20;;
77234;SDS011;66253;50.526;14.974;2023-06-22T13:11:49;11.40;;;8.10;;
77234;SDS011;66253;50.526;14.974;2023-06-22T13:14:17;7.80;;;6.70;;
77234;SDS011;66253;50.526;14.974;2023-06-22T13:16:45;8.80;;;6.70;;
77234;SDS011;66253;50.526;14.974;2023-06-22T13:19:16;8.20;;;6.50;;
77234;SDS011;66253;50.526;14.974;2023-06-22T13:21:45;6.80;;;5.70;;
77234;SDS011;66253;50.526;14.974;2023-06-22T13:24:13;7.50;;;6.80;;
77234;SDS011;66253;50.526;14.974;2023-06-22T13:26:42;8.40;;;7.00;;
77234;SDS011;66253;50.526;14.974;2023-06-22T13:29:11;7.80;;;7.00;;
77234;SDS011;66253;50.526;14.974;2023-06-22T13:31:40;7.60;;;6.80;;
77234;SDS011;66253;50.526;14.974;2023-06-22T13:34:09;10.60;;;6.80;;
77234;SDS011;66253;50.526;14.974;2023-06-22T13:36:38;8.70;;;6.70;;
77234;SDS011;66253;50.526;14.974;2023-06-22T13:39:06;7.30;;;6.00;;
77234;SDS011;66253;50.526;14.974;2023-06-22T13:41:34;8.80;;;7.40;;
77234;SDS011;66253;50.526;14.974;2023-06-22T13:44:03;7.30;;;5.80;;
77234;SDS011;66253;50.526;14.974;2023-06-22T13:46:33;8.10;;;7.20;;
77234;SDS011;66253;50.526;14.974;2023-06-22T13:51:29;9.10;;;6.50;;
77234;SDS011;66253;50.526;14.974;2023-06-22T13:53:57;8.40;;;6.40;;
77234;SDS011;66253;50.526;14.974;2023-06-22T13:56:26;8.30;;;6.60;;
77234;SDS011;66253;50.526;14.974;2023-06-22T13:58:55;9.70;;;5.80;;
77234;SDS011;66253;50.526;14.974;2023-06-22T14:01:23;10.10;;;7.00;;
77234;SDS011;66253;50.526;14.974;2023-06-22T14:03:52;9.00;;;6.80;;
77234;SDS011;66253;50.526;14.974;2023-06-22T14:06:22;9.20;;;6.90;;
77234;SDS011;66253;50.526;14.974;2023-06-22T14:08:50;9.20;;;7.00;;
77234;SDS011;66253;50.526;14.974;2023-06-22T14:11:18;10.10;;;6.30;;
77234;SDS011;66253;50.526;14.974;2023-06-22T14:13:47;8.30;;;5.60;;
77234;SDS011;66253;50.526;14.974;2023-06-22T14:16:15;7.90;;;6.50;;
77234;SDS011;66253;50.526;14.974;2023-06-22T14:18:44;8.60;;;6.10;;
77234;SDS011;66253;50.526;14.974;2023-06-22T14:21:12;9.10;;;6.20;;
77234;SDS011;66253;50.526;14.974;2023-06-22T14:23:41;7.60;;;5.90;;
77234;SDS011;66253;50.526;14.974;2023-06-22T14:26:09;7.70;;;5.80;;
77234;SDS011;66253;50.526;14.974;2023-06-22T14:28:38;7.70;;;6.50;;
77234;SDS011;66253;50.526;14.974;2023-06-22T14:31:06;7.80;;;6.10;;
77234;SDS011;66253;50.526;14.974;2023-06-22T14:33:34;7.50;;;6.40;;
77234;SDS011;66253;50.526;14.974;2023-06-22T14:36:03;8.60;;;7.00;;
77234;SDS011;66253;50.526;14.974;2023-06-22T14:40:58;7.40;;;6.00;;
77234;SDS011;66253;50.526;14.974;2023-06-22T14:43:34;9.20;;;6.60;;
77234;SDS011;66253;50.526;14.974;2023-06-22T14:46:02;8.40;;;6.10;;
77234;SDS011;66253;50.526;14.974;2023-06-22T14:48:31;7.10;;;5.80;;
77234;SDS011;66253;50.526;14.974;2023-06-22T14:50:59;7.50;;;5.70;;
77234;SDS011;66253;50.526;14.974;2023-06-22T14:53:28;7.10;;;5.30;;
77234;SDS011;66253;50.526;14.974;2023-06-22T14:55:57;7.80;;;6.30;;
77234;SDS011;66253;50.526;14.974;2023-06-22T14:58:25;8.00;;;6.90;;
77234;SDS011;66253;50.526;14.974;2023-06-22T15:00:53;8.70;;;6.30;;